createdAt,value
2023-09-11T00:01:11.478Z,-83
2023-09-11T00:03:40.124Z,-83
2023-09-11T00:06:09.151Z,-82
2023-09-11T00:08:39.728Z,-82
2023-09-11T00:11:08.179Z,-83
2023-09-11T00:13:37.250Z,-82
2023-09-11T00:16:05.523Z,-83
2023-09-11T00:18:33.832Z,-82
2023-09-11T00:21:02.110Z,-83
2023-09-11T00:23:30.458Z,-82
2023-09-11T00:26:00.053Z,-83
2023-09-11T00:28:28.522Z,-83
2023-09-11T00:31:01.053Z,-83
2023-09-11T00:33:29.400Z,-82
2023-09-11T00:35:58.120Z,-83
2023-09-11T00:38:25.285Z,-83
2023-09-11T00:40:54.576Z,-83
2023-09-11T00:43:24.504Z,-82
2023-09-11T00:45:56.776Z,-83
2023-09-11T00:48:25.583Z,-82
2023-09-11T00:50:55.603Z,-82
2023-09-11T00:53:24.174Z,-82
2023-09-11T00:55:52.706Z,-82
2023-09-11T00:58:21.364Z,-82
2023-09-11T01:00:51.477Z,-82
2023-09-11T01:03:20.234Z,-82
2023-09-11T01:05:49.401Z,-82
2023-09-11T01:08:17.687Z,-82
2023-09-11T01:10:46.050Z,-82
2023-09-11T01:13:14.553Z,-82
2023-09-11T01:15:46.737Z,-82
2023-09-11T01:18:20.902Z,-82
2023-09-11T01:21:14.615Z,-82
2023-09-11T01:24:17.008Z,-82
2023-09-11T01:27:11.524Z,-82
2023-09-11T01:29:43.289Z,-82
2023-09-11T01:32:13.038Z,-82
2023-09-11T01:34:41.352Z,-82
2023-09-11T01:37:10.726Z,-82
2023-09-11T01:39:40.721Z,-82
2023-09-11T01:42:12.195Z,-83
2023-09-11T01:44:45.043Z,-82
2023-09-11T01:47:16.005Z,-82
2023-09-11T01:49:45.301Z,-82
2023-09-11T01:52:13.811Z,-82
2023-09-11T01:54:42.243Z,-82
2023-09-11T01:57:10.806Z,-82
2023-09-11T01:59:39.210Z,-82
2023-09-11T02:02:09.495Z,-81
2023-09-11T02:04:38.025Z,-82
2023-09-11T02:07:06.719Z,-81
2023-09-11T02:09:35.098Z,-82
2023-09-11T02:12:03.453Z,-81
2023-09-11T02:14:32.061Z,-82
2023-09-11T02:17:06.159Z,-82
2023-09-11T02:19:36.129Z,-82
2023-09-11T02:22:05.049Z,-81
2023-09-11T02:24:33.439Z,-82
2023-09-11T02:27:02.179Z,-82
2023-09-11T02:29:30.354Z,-82
2023-09-11T02:31:58.728Z,-82
2023-09-11T02:34:27.014Z,-82
2023-09-11T02:36:56.543Z,-82
2023-09-11T02:39:24.918Z,-81
2023-09-11T02:41:53.560Z,-81
2023-09-11T02:44:22.728Z,-82
2023-09-11T02:46:50.866Z,-82
2023-09-11T02:49:19.818Z,-82
2023-09-11T02:51:48.454Z,-81
2023-09-11T02:54:18.194Z,-81
2023-09-11T02:56:46.606Z,-81
2023-09-11T02:59:15.244Z,-81
2023-09-11T03:01:43.684Z,-81
2023-09-11T03:04:12.060Z,-81
2023-09-11T03:06:40.547Z,-81
2023-09-11T03:09:09.132Z,-81
2023-09-11T03:11:39.032Z,-81
2023-09-11T03:14:07.436Z,-81
2023-09-11T03:16:35.588Z,-81
2023-09-11T03:19:04.243Z,-81
2023-09-11T03:21:32.730Z,-81
2023-09-11T03:24:01.288Z,-81
2023-09-11T03:26:29.754Z,-81
2023-09-11T03:28:59.679Z,-81
2023-09-11T03:31:28.045Z,-81
2023-09-11T03:33:56.756Z,-81
2023-09-11T03:36:25.135Z,-81
2023-09-11T03:38:53.601Z,-81
2023-09-11T03:41:22.979Z,-81
2023-09-11T03:43:51.774Z,-81
2023-09-11T03:46:21.972Z,-81
2023-09-11T03:48:50.463Z,-81
2023-09-11T03:51:18.969Z,-81
2023-09-11T03:53:47.362Z,-80
2023-09-11T03:56:15.962Z,-81
2023-09-11T03:58:45.348Z,-80
2023-09-11T04:01:14.111Z,-81
2023-09-11T04:03:44.866Z,-81
2023-09-11T04:06:13.310Z,-81
2023-09-11T04:08:42.172Z,-81
2023-09-11T04:11:11.884Z,-81
2023-09-11T04:13:40.490Z,-81
2023-09-11T04:16:09.119Z,-81
2023-09-11T04:18:37.494Z,-82
2023-09-11T04:21:08.272Z,-81
2023-09-11T04:23:36.858Z,-82
2023-09-11T04:26:05.374Z,-82
2023-09-11T04:28:33.754Z,-82
2023-09-11T04:31:02.277Z,-81
2023-09-11T04:33:30.608Z,-81
2023-09-11T04:35:59.073Z,-82
2023-09-11T04:38:28.990Z,-82
2023-09-11T04:40:58.551Z,-82
2023-09-11T04:43:27.159Z,-82
2023-09-11T04:45:55.727Z,-82
2023-09-11T04:48:24.324Z,-82
2023-09-11T04:50:52.690Z,-82
2023-09-11T04:53:21.543Z,-82
2023-09-11T04:55:51.444Z,-82
2023-09-11T04:58:20.029Z,-81
2023-09-11T05:00:48.575Z,-81
2023-09-11T05:03:17.141Z,-80
2023-09-11T05:05:45.446Z,-80
2023-09-11T05:08:13.936Z,-81
2023-09-11T05:10:43.166Z,-81
2023-09-11T05:13:13.738Z,-80
2023-09-11T05:15:42.558Z,-80
2023-09-11T05:18:12.577Z,-81
2023-09-11T05:20:41.990Z,-81
2023-09-11T05:23:10.892Z,-82
2023-09-11T05:25:39.388Z,-82
2023-09-11T05:28:08.104Z,-82
2023-09-11T05:30:38.128Z,-82
2023-09-11T05:33:06.635Z,-82
2023-09-11T05:35:35.195Z,-82
2023-09-11T05:38:03.973Z,-82
2023-09-11T05:40:32.181Z,-81
2023-09-11T05:43:00.638Z,-82
2023-09-11T05:45:29.174Z,-81
2023-09-11T05:47:59.093Z,-81
2023-09-11T05:50:27.327Z,-82
2023-09-11T05:52:55.545Z,-80
2023-09-11T05:55:23.943Z,-85
2023-09-11T05:57:52.205Z,-81
2023-09-11T06:00:20.911Z,-83
2023-09-11T06:02:49.310Z,-81
2023-09-11T06:05:18.961Z,-81
2023-09-11T06:07:47.502Z,-80
2023-09-11T06:10:15.977Z,-81
2023-09-11T06:12:44.224Z,-81
2023-09-11T06:15:13.534Z,-81
2023-09-11T06:17:45.399Z,-82
2023-09-11T06:20:17.524Z,-81
2023-09-11T06:22:47.649Z,-80
2023-09-11T06:25:16.404Z,-82
2023-09-11T06:27:44.989Z,-81
2023-09-11T06:30:14.533Z,-81
2023-09-11T06:32:43.308Z,-81
2023-09-11T06:35:12.870Z,-81
2023-09-11T06:37:41.821Z,-81
2023-09-11T06:40:13.483Z,-81
2023-09-11T06:42:41.732Z,-81
2023-09-11T06:45:11.962Z,-81
2023-09-11T06:47:40.583Z,-81
2023-09-11T06:50:10.038Z,-81
2023-09-11T06:52:40.100Z,-82
2023-09-11T06:55:10.185Z,-81
2023-09-11T06:57:42.521Z,-81
2023-09-11T07:00:16.772Z,-81
2023-09-11T07:02:50.325Z,-81
2023-09-11T07:05:18.835Z,-81
2023-09-11T07:07:47.517Z,-81
2023-09-11T07:10:30.185Z,-81
2023-09-11T07:13:08.404Z,-81
2023-09-11T07:15:36.707Z,-81
2023-09-11T07:18:05.711Z,-81
2023-09-11T07:20:34.054Z,-81
2023-09-11T07:23:02.143Z,-81
2023-09-11T07:25:30.435Z,-81
2023-09-11T07:28:00.161Z,-82
2023-09-11T07:30:30.233Z,-81
2023-09-11T07:32:58.686Z,-81
2023-09-11T07:35:26.939Z,-81
2023-09-11T07:37:55.275Z,-82
2023-09-11T07:40:24.451Z,-81
2023-09-11T07:42:54.150Z,-81
2023-09-11T07:45:22.554Z,-81
2023-09-11T07:47:53.332Z,-81
2023-09-11T07:50:21.845Z,-81
2023-09-11T07:52:51.604Z,-81
2023-09-11T07:55:20.877Z,-81
2023-09-11T07:57:49.402Z,-81
2023-09-11T08:00:17.572Z,-81
2023-09-11T08:02:46.140Z,-81
2023-09-11T08:05:15.933Z,-81
2023-09-11T08:07:44.237Z,-81
2023-09-11T08:10:12.875Z,-81
2023-09-11T08:12:41.178Z,-81
2023-09-11T08:15:10.839Z,-81
2023-09-11T08:17:39.020Z,-81
2023-09-11T08:20:10.699Z,-81
2023-09-11T08:22:41.192Z,-81
2023-09-11T08:25:11.603Z,-81
2023-09-11T08:27:40.022Z,-81
2023-09-11T08:30:09.376Z,-81
2023-09-11T08:32:38.468Z,-81
2023-09-11T08:35:07.573Z,-81
2023-09-11T08:37:36.010Z,-81
2023-09-11T08:40:06.778Z,-81
2023-09-11T08:42:34.997Z,-81
2023-09-11T08:45:03.473Z,-78
2023-09-11T08:47:33.445Z,-80
2023-09-11T08:50:06.553Z,-79
2023-09-11T08:52:36.623Z,-80
2023-09-11T08:55:10.335Z,-79
2023-09-11T08:57:41.827Z,-79
2023-09-11T09:00:13.979Z,-79
2023-09-11T09:02:43.059Z,-79
2023-09-11T09:05:11.826Z,-79
2023-09-11T09:07:40.828Z,-79
2023-09-11T09:10:12.624Z,-79
2023-09-11T09:12:42.858Z,-79
2023-09-11T09:15:12.077Z,-80
2023-09-11T09:17:41.823Z,-80
2023-09-11T09:20:12.301Z,-80
2023-09-11T09:22:55.822Z,-80
2023-09-11T09:25:26.923Z,-80
2023-09-11T09:27:55.652Z,-80
2023-09-11T09:30:25.043Z,-80
2023-09-11T09:32:54.742Z,-80
2023-09-11T09:35:24.619Z,-79
2023-09-11T09:37:55.564Z,-80
2023-09-11T09:40:34.833Z,-80
2023-09-11T09:43:05.817Z,-79
2023-09-11T09:45:36.958Z,-79
2023-09-11T09:48:09.606Z,-79
2023-09-11T09:50:59.663Z,-79
2023-09-11T09:53:31.118Z,-79
2023-09-11T09:56:04.579Z,-79
2023-09-11T09:58:38.626Z,-78
2023-09-11T10:01:09.282Z,-79
2023-09-11T10:03:46.405Z,-80
2023-09-11T10:06:18.171Z,-80
2023-09-11T10:08:47.087Z,-79
2023-09-11T10:11:32.299Z,-79
2023-09-11T10:14:02.013Z,-79
2023-09-11T10:16:32.182Z,-80
2023-09-11T10:19:01.654Z,-80
2023-09-11T10:21:33.150Z,-80
2023-09-11T10:24:01.547Z,-80
2023-09-11T10:26:36.911Z,-80
2023-09-11T10:29:09.315Z,-78
2023-09-11T10:31:42.481Z,-80
2023-09-11T10:34:12.795Z,-79
2023-09-11T10:36:45.733Z,-80
2023-09-11T10:39:15.188Z,-80
2023-09-11T10:41:45.381Z,-79
2023-09-11T10:44:14.917Z,-79
2023-09-11T10:46:45.293Z,-79
2023-09-11T10:49:18.287Z,-79
2023-09-11T10:51:49.203Z,-79
2023-09-11T10:54:18.556Z,-78
2023-09-11T10:56:48.510Z,-79
2023-09-11T10:59:18.081Z,-79
2023-09-11T11:01:48.437Z,-79
2023-09-11T11:04:18.668Z,-79
2023-09-11T11:06:47.706Z,-79
2023-09-11T11:12:06.902Z,-79
2023-09-11T11:14:35.815Z,-80
2023-09-11T11:17:07.478Z,-79
2023-09-11T11:19:37.777Z,-78
2023-09-11T11:22:10.090Z,-79
2023-09-11T11:24:54.661Z,-79
2023-09-11T11:27:25.710Z,-80
2023-09-11T11:29:55.109Z,-78
2023-09-11T11:32:24.343Z,-77
2023-09-11T11:34:53.477Z,-77
2023-09-11T11:37:25.135Z,-77
2023-09-11T11:39:53.960Z,-77
2023-09-11T11:42:23.819Z,-77
2023-09-11T11:44:52.488Z,-78
2023-09-11T11:47:21.588Z,-77
2023-09-11T11:49:51.065Z,-78
2023-09-11T11:52:19.925Z,-78
2023-09-11T11:54:48.334Z,-79
2023-09-11T11:57:17.074Z,-79
2023-09-11T11:59:47.819Z,-79
2023-09-11T12:02:22.490Z,-79
2023-09-11T12:04:56.340Z,-79
2023-09-11T12:07:25.279Z,-79
2023-09-11T12:09:54.190Z,-79
2023-09-11T12:12:22.834Z,-79
2023-09-11T12:14:57.967Z,-79
2023-09-11T12:17:26.289Z,-79
2023-09-11T12:20:11.687Z,-80
2023-09-11T12:22:40.056Z,-79
2023-09-11T12:25:11.546Z,-79
2023-09-11T12:27:40.218Z,-79
2023-09-11T12:30:11.329Z,-81
2023-09-11T12:32:41.251Z,-79
2023-09-11T12:35:10.211Z,-78
2023-09-11T12:37:41.288Z,-79
2023-09-11T12:40:11.525Z,-82
2023-09-11T12:42:40.717Z,-79
2023-09-11T12:45:12.305Z,-79
2023-09-11T12:47:41.256Z,-80
2023-09-11T12:50:12.786Z,-80
2023-09-11T12:52:41.401Z,-81
2023-09-11T12:55:10.495Z,-80
2023-09-11T12:57:41.006Z,-80
2023-09-11T13:00:12.370Z,-80
2023-09-11T13:02:40.816Z,-79
2023-09-11T13:05:09.964Z,-79
2023-09-11T13:07:38.622Z,-79
2023-09-11T13:10:08.127Z,-79
2023-09-11T13:12:36.488Z,-79
2023-09-11T13:15:06.352Z,-79
2023-09-11T13:17:36.265Z,-78
2023-09-11T13:20:06.181Z,-80
2023-09-11T13:22:34.403Z,-79
2023-09-11T13:25:03.070Z,-79
2023-09-11T13:27:32.197Z,-80
2023-09-11T13:30:01.254Z,-79
2023-09-11T13:32:30.081Z,-80
2023-09-11T13:35:00.343Z,-79
2023-09-11T13:37:28.898Z,-79
2023-09-11T13:39:57.532Z,-79
2023-09-11T13:42:26.995Z,-79
2023-09-11T13:44:55.864Z,-79
2023-09-11T13:47:27.383Z,-80
2023-09-11T13:49:55.696Z,-79
2023-09-11T13:52:25.471Z,-80
2023-09-11T13:54:53.718Z,-79
2023-09-11T13:57:21.797Z,-79
2023-09-11T13:59:50.036Z,-79
2023-09-11T14:02:18.237Z,-78
2023-09-11T14:04:46.668Z,-80
2023-09-11T14:07:15.561Z,-80
2023-09-11T14:09:45.808Z,-79
2023-09-11T14:12:14.717Z,-79
2023-09-11T14:14:43.212Z,-80
2023-09-11T14:17:11.638Z,-80
2023-09-11T14:19:40.128Z,-79
2023-09-11T14:22:08.645Z,-80
2023-09-11T14:24:36.826Z,-80
2023-09-11T14:27:07.341Z,-80
2023-09-11T14:29:35.902Z,-80
2023-09-11T14:32:07.096Z,-80
2023-09-11T14:34:36.824Z,-80
2023-09-11T14:37:22.406Z,-80
2023-09-11T14:39:51.450Z,-79
2023-09-11T14:42:21.178Z,-80
2023-09-11T14:44:49.654Z,-80
2023-09-11T14:47:18.090Z,-80
2023-09-11T14:49:48.538Z,-80
2023-09-11T14:52:16.982Z,-80
2023-09-11T14:54:53.644Z,-79
2023-09-11T14:57:25.111Z,-79
2023-09-11T14:59:54.177Z,-80
2023-09-11T15:02:22.834Z,-80
2023-09-11T15:04:52.658Z,-79
2023-09-11T15:07:21.942Z,-79
2023-09-11T15:09:50.865Z,-79
2023-09-11T15:12:19.959Z,-80
2023-09-11T15:14:49.837Z,-79
2023-09-11T15:17:18.337Z,-79
2023-09-11T15:19:47.113Z,-80
2023-09-11T15:22:15.438Z,-79
2023-09-11T15:24:44.323Z,-79
2023-09-11T15:27:13.123Z,-80
2023-09-11T15:29:41.656Z,-79
2023-09-11T15:32:13.173Z,-79
2023-09-11T15:34:43.259Z,-79
2023-09-11T15:37:15.818Z,-79
2023-09-11T15:39:45.705Z,-79
2023-09-11T15:42:14.116Z,-79
2023-09-11T15:44:42.836Z,-80
2023-09-11T15:47:12.934Z,-79
2023-09-11T15:49:41.177Z,-80
2023-09-11T15:52:09.426Z,-79
2023-09-11T15:54:38.142Z,-80
2023-09-11T15:57:07.396Z,-79
2023-09-11T15:59:35.856Z,-79
2023-09-11T16:02:04.520Z,-79
2023-09-11T16:04:34.631Z,-79
2023-09-11T16:07:03.047Z,-79
2023-09-11T16:09:32.692Z,-80
2023-09-11T16:12:01.486Z,-79
2023-09-11T16:14:29.862Z,-80
2023-09-11T16:17:00.085Z,-80
2023-09-11T16:19:29.074Z,-80
2023-09-11T16:21:59.046Z,-80
2023-09-11T16:24:28.629Z,-79
2023-09-11T16:26:59.457Z,-80
2023-09-11T16:29:28.039Z,-78
2023-09-11T16:31:56.321Z,-82
2023-09-11T16:34:24.750Z,-79
2023-09-11T16:36:53.058Z,-79
2023-09-11T16:39:23.356Z,-78
2023-09-11T16:41:52.174Z,-78
2023-09-11T16:44:20.381Z,-79
2023-09-11T16:46:48.604Z,-79
2023-09-11T16:49:20.746Z,-78
2023-09-11T16:51:49.187Z,-78
2023-09-11T16:54:18.713Z,-78
2023-09-11T16:56:49.583Z,-78
2023-09-11T16:59:19.453Z,-77
2023-09-11T17:01:47.604Z,-78
2023-09-11T17:04:16.112Z,-78
2023-09-11T17:06:45.123Z,-78
2023-09-11T17:09:14.492Z,-78
2023-09-11T17:11:43.251Z,-78
2023-09-11T17:14:13.052Z,-78
2023-09-11T17:16:41.572Z,-78
2023-09-11T17:19:10.150Z,-78
2023-09-11T17:21:38.442Z,-78
2023-09-11T17:24:07.345Z,-78
2023-09-11T17:26:35.821Z,-78
2023-09-11T17:29:04.365Z,-78
2023-09-11T17:31:34.611Z,-78
2023-09-11T17:34:05.310Z,-78
2023-09-11T17:36:33.680Z,-79
2023-09-11T17:39:01.995Z,-79
2023-09-11T17:41:30.299Z,-79
2023-09-11T17:43:58.847Z,-78
2023-09-11T17:46:27.317Z,-79
2023-09-11T17:48:57.134Z,-78
2023-09-11T17:51:25.417Z,-79
2023-09-11T17:53:54.019Z,-80
2023-09-11T17:56:22.606Z,-78
2023-09-11T17:58:52.385Z,-80
2023-09-11T18:01:21.095Z,-79
2023-09-11T18:03:57.664Z,-80
2023-09-11T18:06:29.085Z,-80
2023-09-11T18:08:59.038Z,-80
2023-09-11T18:11:27.396Z,-80
2023-09-11T18:13:57.485Z,-81
2023-09-11T18:16:25.726Z,-81
2023-09-11T18:18:54.216Z,-80
2023-09-11T18:21:22.907Z,-80
2023-09-11T18:23:55.796Z,-80
2023-09-11T18:26:25.183Z,-80
2023-09-11T18:28:53.488Z,-80
2023-09-11T18:31:21.938Z,-79
2023-09-11T18:33:50.471Z,-80
2023-09-11T18:36:18.915Z,-80
2023-09-11T18:38:47.746Z,-80
2023-09-11T18:41:19.183Z,-81
2023-09-11T18:43:47.696Z,-80
2023-09-11T18:46:16.293Z,-80
2023-09-11T18:48:45.047Z,-80
2023-09-11T18:51:13.984Z,-79
2023-09-11T18:53:42.213Z,-80
2023-09-11T18:56:12.059Z,-80
2023-09-11T18:58:42.209Z,-80
2023-09-11T19:01:10.801Z,-80
2023-09-11T19:03:39.490Z,-80
2023-09-11T19:06:10.119Z,-79
2023-09-11T19:08:38.636Z,-80
2023-09-11T19:11:07.084Z,-81
2023-09-11T19:13:35.428Z,-80
2023-09-11T19:16:05.691Z,-80
2023-09-11T19:18:38.188Z,-79
2023-09-11T19:21:07.579Z,-80
2023-09-11T19:23:35.918Z,-79
2023-09-11T19:26:05.319Z,-80
2023-09-11T19:28:33.861Z,-84
2023-09-11T19:31:03.104Z,-81
2023-09-11T19:33:34.102Z,-81
2023-09-11T19:36:02.563Z,-80
2023-09-11T19:38:31.583Z,-80
2023-09-11T19:41:00.277Z,-80
2023-09-11T19:43:29.693Z,-80
2023-09-11T19:45:58.322Z,-80
2023-09-11T19:48:26.669Z,-79
2023-09-11T19:50:56.563Z,-80
2023-09-11T19:53:25.585Z,-80
2023-09-11T19:55:53.721Z,-80
2023-09-11T19:58:22.384Z,-81
2023-09-11T20:00:53.288Z,-80
2023-09-11T20:03:23.199Z,-80
2023-09-11T20:05:51.814Z,-81
2023-09-11T20:08:21.629Z,-83
2023-09-11T20:10:50.251Z,-81
2023-09-11T20:13:19.331Z,-80
2023-09-11T20:15:47.645Z,-80
2023-09-11T20:18:16.207Z,-81
2023-09-11T20:20:44.800Z,-80
2023-09-11T20:23:13.352Z,-81
2023-09-11T20:25:43.106Z,-81
2023-09-11T20:28:11.587Z,-81
2023-09-11T20:30:40.024Z,-81
2023-09-11T20:33:08.630Z,-81
2023-09-11T20:35:38.134Z,-81
2023-09-11T20:38:06.568Z,-81
2023-09-11T20:40:34.952Z,-81
2023-09-11T20:43:05.437Z,-81
2023-09-11T20:45:33.957Z,-81
2023-09-11T20:48:02.578Z,-81
2023-09-11T20:50:31.475Z,-81
2023-09-11T20:52:59.977Z,-81
2023-09-11T20:55:28.100Z,-81
2023-09-11T20:57:57.987Z,-81
2023-09-11T21:00:27.889Z,-81
2023-09-11T21:02:57.061Z,-81
2023-09-11T21:05:25.287Z,-81
2023-09-11T21:07:54.965Z,-81
2023-09-11T21:10:24.494Z,-81
2023-09-11T21:12:53.745Z,-81
2023-09-11T21:15:22.662Z,-80
2023-09-11T21:17:54.341Z,-81
2023-09-11T21:20:22.762Z,-81
2023-09-11T21:22:50.970Z,-81
2023-09-11T21:25:20.243Z,-81
2023-09-11T21:27:49.461Z,-81
2023-09-11T21:30:18.118Z,-81
2023-09-11T21:32:47.970Z,-79
2023-09-11T21:35:18.000Z,-81
2023-09-11T21:37:46.908Z,-81
2023-09-11T21:40:15.235Z,-81
2023-09-11T21:42:43.437Z,-82
2023-09-11T21:45:13.422Z,-82
2023-09-11T21:47:41.726Z,-82
2023-09-11T21:50:10.968Z,-82
2023-09-11T21:52:41.118Z,-82
2023-09-11T21:55:10.046Z,-82
2023-09-11T21:57:38.314Z,-83
2023-09-11T22:00:08.304Z,-83
2023-09-11T22:02:38.432Z,-83
2023-09-11T22:05:07.514Z,-83
2023-09-11T22:07:35.688Z,-83
2023-09-11T22:10:05.904Z,-82
2023-09-11T22:12:34.513Z,-83
2023-09-11T22:15:04.474Z,-83
2023-09-11T22:17:33.782Z,-83
2023-09-11T22:20:03.886Z,-81
2023-09-11T22:22:32.499Z,-81
2023-09-11T22:25:00.654Z,-82
2023-09-11T22:27:30.343Z,-82
2023-09-11T22:29:58.575Z,-82
2023-09-11T22:32:27.291Z,-82
2023-09-11T22:34:56.619Z,-82
2023-09-11T22:37:25.151Z,-82
2023-09-11T22:39:53.220Z,-82
2023-09-11T22:42:21.578Z,-82
2023-09-11T22:44:52.496Z,-81
2023-09-11T22:47:22.090Z,-82
2023-09-11T22:49:50.922Z,-81
2023-09-11T22:52:19.349Z,-82
2023-09-11T22:54:47.645Z,-82
2023-09-11T22:57:16.116Z,-82
2023-09-11T22:59:44.390Z,-82
2023-09-11T23:02:14.495Z,-81
2023-09-11T23:04:43.410Z,-80
2023-09-11T23:07:12.242Z,-81
2023-09-11T23:09:40.538Z,-79
2023-09-11T23:12:09.098Z,-80
2023-09-11T23:14:37.687Z,-80
2023-09-11T23:17:06.164Z,-80
2023-09-11T23:19:36.296Z,-80
2023-09-11T23:22:04.727Z,-79
2023-09-11T23:24:33.266Z,-80
2023-09-11T23:27:02.004Z,-79
2023-09-11T23:29:30.281Z,-79
2023-09-11T23:31:58.794Z,-79
2023-09-11T23:34:27.348Z,-80
2023-09-11T23:36:57.790Z,-79
2023-09-11T23:39:26.422Z,-80
2023-09-11T23:41:54.949Z,-80
2023-09-11T23:44:23.685Z,-80
2023-09-11T23:46:52.205Z,-79
2023-09-11T23:49:20.357Z,-80
2023-09-11T23:51:48.961Z,-79
2023-09-11T23:54:18.912Z,-80
2023-09-11T23:56:47.518Z,-79
2023-09-11T23:59:16.472Z,-79
